createdAt,value
2022-11-15T00:02:44.442Z,4.91
2022-11-15T00:05:31.491Z,4.89
2022-11-15T00:08:19.048Z,4.89
2022-11-15T00:11:06.680Z,4.88
2022-11-15T00:13:57.741Z,4.88
2022-11-15T00:16:44.761Z,4.88
2022-11-15T00:19:32.169Z,4.92
2022-11-15T00:22:19.353Z,4.90
2022-11-15T00:25:07.471Z,4.81
2022-11-15T00:27:58.541Z,4.74
2022-11-15T00:30:47.065Z,4.68
2022-11-15T00:33:34.840Z,4.69
2022-11-15T00:36:22.110Z,4.61
2022-11-15T00:39:09.322Z,4.59
2022-11-15T00:41:56.607Z,4.73
2022-11-15T00:44:43.925Z,4.79
2022-11-15T00:47:32.662Z,4.71
2022-11-15T00:50:20.681Z,4.69
2022-11-15T00:53:08.291Z,4.71
2022-11-15T00:55:55.466Z,4.77
2022-11-15T00:58:42.509Z,4.85
2022-11-15T01:01:29.573Z,4.89
2022-11-15T01:04:18.157Z,4.93
2022-11-15T01:07:05.494Z,5.01
2022-11-15T01:09:53.010Z,5.07
2022-11-15T01:12:40.247Z,5.06
2022-11-15T01:15:27.226Z,5.12
2022-11-15T01:18:14.188Z,5.18
2022-11-15T01:21:06.366Z,5.14
2022-11-15T01:23:56.195Z,5.12
2022-11-15T01:26:43.494Z,5.11
2022-11-15T01:29:30.561Z,5.13
2022-11-15T01:32:17.853Z,5.12
2022-11-15T01:35:05.159Z,5.13
2022-11-15T01:37:53.960Z,5.14
2022-11-15T01:40:42.171Z,5.21
2022-11-15T01:43:31.561Z,5.23
2022-11-15T01:46:28.095Z,5.30
2022-11-15T01:49:19.041Z,5.32
2022-11-15T01:52:10.935Z,5.35
2022-11-15T01:55:06.863Z,5.44
2022-11-15T01:57:58.116Z,5.42
2022-11-15T02:00:45.631Z,5.38
2022-11-15T02:03:40.215Z,5.36
2022-11-15T02:06:27.651Z,5.34
2022-11-15T02:09:15.425Z,5.39
2022-11-15T02:12:04.328Z,5.42
2022-11-15T02:14:54.595Z,5.43
2022-11-15T02:18:08.508Z,5.03
2022-11-15T02:21:13.095Z,5.41
2022-11-15T02:24:42.080Z,5.39
2022-11-15T02:27:57.328Z,5.38
2022-11-15T02:30:49.976Z,5.42
2022-11-15T02:33:46.455Z,5.42
2022-11-15T02:36:42.411Z,5.49
2022-11-15T02:39:37.762Z,5.51
2022-11-15T02:42:46.963Z,5.49
2022-11-15T02:45:38.549Z,5.49
2022-11-15T02:48:28.566Z,5.53
2022-11-15T02:51:17.905Z,5.42
2022-11-15T02:54:05.342Z,5.59
2022-11-15T02:56:54.504Z,5.54
2022-11-15T03:00:08.620Z,5.55
2022-11-15T03:03:16.518Z,5.17
2022-11-15T03:06:14.323Z,5.56
2022-11-15T03:09:09.952Z,5.55
2022-11-15T03:12:03.261Z,5.53
2022-11-15T03:14:57.723Z,5.58
2022-11-15T03:17:50.885Z,5.54
2022-11-15T03:20:39.282Z,5.53
2022-11-15T03:23:31.036Z,5.53
2022-11-15T03:26:21.550Z,5.51
2022-11-15T03:29:13.754Z,5.51
2022-11-15T03:32:06.067Z,5.51
2022-11-15T03:34:57.795Z,5.50
2022-11-15T03:37:51.845Z,5.50
2022-11-15T03:40:43.774Z,5.53
2022-11-15T03:43:38.265Z,5.56
2022-11-15T03:46:30.505Z,5.53
2022-11-15T03:49:25.505Z,5.50
2022-11-15T03:52:13.441Z,5.48
2022-11-15T03:55:04.042Z,5.51
2022-11-15T03:57:58.659Z,5.47
2022-11-15T04:00:45.687Z,5.44
2022-11-15T04:03:33.461Z,5.46
2022-11-15T04:06:20.880Z,5.47
2022-11-15T04:09:08.014Z,5.45
2022-11-15T04:11:55.544Z,5.46
2022-11-15T04:15:04.432Z,5.45
2022-11-15T04:17:53.467Z,5.46
2022-11-15T04:20:58.174Z,5.48
2022-11-15T04:24:02.087Z,5.48
2022-11-15T04:26:49.393Z,5.50
2022-11-15T04:29:36.393Z,5.48
2022-11-15T04:32:25.138Z,5.44
2022-11-15T04:35:12.803Z,5.40
2022-11-15T04:38:00.654Z,5.40
2022-11-15T04:40:48.633Z,5.35
2022-11-15T04:43:36.058Z,5.36
2022-11-15T04:46:23.265Z,5.36
2022-11-15T04:49:11.921Z,5.32
2022-11-15T04:51:59.077Z,5.34
2022-11-15T04:54:46.230Z,5.34
2022-11-15T04:57:34.440Z,5.35
2022-11-15T05:00:22.044Z,5.35
2022-11-15T05:03:28.435Z,5.36
2022-11-15T05:06:17.016Z,5.27
2022-11-15T05:09:04.192Z,5.20
2022-11-15T05:11:51.259Z,5.16
2022-11-15T05:14:38.345Z,5.17
2022-11-15T05:17:25.792Z,5.16
2022-11-15T05:20:13.798Z,5.15
2022-11-15T05:23:02.313Z,5.13
2022-11-15T05:25:49.639Z,5.13
2022-11-15T05:28:38.132Z,5.16
2022-11-15T05:31:25.599Z,5.15
2022-11-15T05:34:13.081Z,5.13
2022-11-15T05:37:01.289Z,5.13
2022-11-15T05:39:49.928Z,5.12
2022-11-15T05:42:37.282Z,5.10
2022-11-15T05:45:27.059Z,5.09
2022-11-15T05:48:15.723Z,5.10
2022-11-15T05:51:06.118Z,5.11
2022-11-15T05:53:55.451Z,5.08
2022-11-15T05:56:44.888Z,5.07
2022-11-15T05:59:33.112Z,5.07
2022-11-15T06:02:20.499Z,5.06
2022-11-15T06:05:08.109Z,5.06
2022-11-15T06:07:59.106Z,5.04
2022-11-15T06:10:46.254Z,5.03
2022-11-15T06:13:35.361Z,5.06
2022-11-15T06:16:22.492Z,5.05
2022-11-15T06:19:10.079Z,5.08
2022-11-15T06:21:57.176Z,5.10
2022-11-15T06:24:45.029Z,5.11
2022-11-15T06:27:32.361Z,5.13
2022-11-15T06:30:21.006Z,5.17
2022-11-15T06:33:09.776Z,5.20
2022-11-15T06:35:57.033Z,5.24
2022-11-15T06:38:44.059Z,5.27
2022-11-15T06:41:31.032Z,5.30
2022-11-15T06:44:19.868Z,5.33
2022-11-15T06:47:08.303Z,5.38
2022-11-15T06:49:55.406Z,5.41
2022-11-15T06:52:42.575Z,5.46
2022-11-15T06:55:29.946Z,5.51
2022-11-15T06:58:17.129Z,5.56
2022-11-15T07:01:06.719Z,5.59
2022-11-15T07:03:55.873Z,5.62
2022-11-15T07:06:43.230Z,5.69
2022-11-15T07:09:30.397Z,5.74
2022-11-15T07:12:17.525Z,5.80
2022-11-15T07:15:04.846Z,5.82
2022-11-15T07:17:52.347Z,5.96
2022-11-15T07:20:41.763Z,6.00
2022-11-15T07:23:29.179Z,6.06
2022-11-15T07:26:16.351Z,6.14
2022-11-15T07:29:03.567Z,6.19
2022-11-15T07:31:52.520Z,6.23
2022-11-15T07:34:40.072Z,6.30
2022-11-15T07:37:28.484Z,6.37
2022-11-15T07:40:18.179Z,6.44
2022-11-15T07:43:07.726Z,6.53
2022-11-15T07:45:59.088Z,6.61
2022-11-15T07:48:46.775Z,6.68
2022-11-15T07:51:33.766Z,6.78
2022-11-15T07:54:22.627Z,6.83
2022-11-15T07:57:10.987Z,6.90
2022-11-15T07:59:58.078Z,7.00
2022-11-15T08:02:45.422Z,7.07
2022-11-15T08:05:32.535Z,7.13
2022-11-15T08:08:19.644Z,7.25
2022-11-15T08:11:08.658Z,7.38
2022-11-15T08:13:55.675Z,7.42
2022-11-15T08:16:42.681Z,7.45
2022-11-15T08:19:29.772Z,7.54
2022-11-15T08:22:16.857Z,7.68
2022-11-15T08:25:03.986Z,7.72
2022-11-15T08:27:54.732Z,7.82
2022-11-15T08:30:46.359Z,7.87
2022-11-15T08:33:35.078Z,7.94
2022-11-15T08:36:23.004Z,8.00
2022-11-15T08:39:13.528Z,8.04
2022-11-15T08:42:00.846Z,8.13
2022-11-15T08:44:49.440Z,8.21
2022-11-15T08:47:37.269Z,8.31
2022-11-15T08:50:25.248Z,8.40
2022-11-15T08:53:14.406Z,8.46
2022-11-15T08:56:01.595Z,8.55
2022-11-15T08:58:48.912Z,8.65
2022-11-15T09:01:37.697Z,8.78
2022-11-15T09:04:24.992Z,8.86
2022-11-15T09:07:13.275Z,8.96
2022-11-15T09:10:00.660Z,9.03
2022-11-15T09:12:49.513Z,9.11
2022-11-15T09:15:36.952Z,9.18
2022-11-15T09:18:25.337Z,9.26
2022-11-15T09:21:12.784Z,9.35
2022-11-15T09:24:00.390Z,9.41
2022-11-15T09:26:48.020Z,9.49
2022-11-15T09:29:35.019Z,9.63
2022-11-15T09:32:23.781Z,9.73
2022-11-15T09:35:12.529Z,9.84
2022-11-15T09:38:00.831Z,9.98
2022-11-15T09:40:53.233Z,10.11
2022-11-15T09:43:52.925Z,10.17
2022-11-15T09:46:48.083Z,10.28
2022-11-15T09:49:45.306Z,10.36
2022-11-15T09:52:24.257Z,10.42
2022-11-15T09:54:56.020Z,10.45
2022-11-15T09:57:33.502Z,10.51
2022-11-15T10:00:43.924Z,10.54
2022-11-15T10:03:12.574Z,10.58
2022-11-15T10:05:43.300Z,10.64
2022-11-15T10:08:51.896Z,10.69
2022-11-15T10:11:40.007Z,10.76
2022-11-15T10:14:15.855Z,10.83
2022-11-15T10:17:14.154Z,10.63
2022-11-15T10:20:02.406Z,11.01
2022-11-15T10:22:42.470Z,11.04
2022-11-15T10:25:26.934Z,11.10
2022-11-15T10:27:58.993Z,11.12
2022-11-15T10:30:35.005Z,11.18
2022-11-15T10:33:22.565Z,11.21
2022-11-15T10:36:11.238Z,11.28
2022-11-15T10:38:54.740Z,11.31
2022-11-15T10:41:35.566Z,11.40
2022-11-15T10:44:26.938Z,11.50
2022-11-15T10:47:37.848Z,11.55
2022-11-15T10:50:28.409Z,11.59
2022-11-15T10:52:57.213Z,11.66
2022-11-15T10:55:29.890Z,11.70
2022-11-15T10:58:05.633Z,11.73
2022-11-15T11:00:37.596Z,11.72
2022-11-15T11:03:09.009Z,11.80
2022-11-15T11:05:42.107Z,11.85
2022-11-15T11:08:26.752Z,11.89
2022-11-15T11:11:02.197Z,11.91
2022-11-15T11:13:34.964Z,11.91
2022-11-15T11:16:26.879Z,11.94
2022-11-15T11:19:07.787Z,11.95
2022-11-15T11:21:46.813Z,12.00
2022-11-15T11:24:27.913Z,12.06
2022-11-15T11:27:15.728Z,11.95
2022-11-15T11:30:04.062Z,12.12
2022-11-15T11:32:51.280Z,12.13
2022-11-15T11:35:26.789Z,12.18
2022-11-15T11:38:01.633Z,12.25
2022-11-15T11:40:34.537Z,12.30
2022-11-15T11:43:12.648Z,12.33
2022-11-15T11:46:01.371Z,12.34
2022-11-15T11:48:43.014Z,12.38
2022-11-15T11:51:19.580Z,12.39
2022-11-15T11:53:55.193Z,12.39
2022-11-15T11:56:29.801Z,12.39
2022-11-15T11:59:04.501Z,12.41
2022-11-15T12:01:39.716Z,12.48
2022-11-15T12:04:18.458Z,12.53
2022-11-15T12:06:52.788Z,12.51
2022-11-15T12:09:28.548Z,12.53
2022-11-15T12:12:04.884Z,12.51
2022-11-15T12:14:41.090Z,12.53
2022-11-15T12:17:13.733Z,12.54
2022-11-15T12:19:48.633Z,12.57
2022-11-15T12:22:26.021Z,12.47
2022-11-15T12:25:01.467Z,12.60
2022-11-15T12:27:37.694Z,12.58
2022-11-15T12:30:13.254Z,12.61
2022-11-15T12:32:53.859Z,12.60
2022-11-15T12:35:35.838Z,12.63
2022-11-15T12:38:05.101Z,12.66
2022-11-15T12:40:36.902Z,12.69
2022-11-15T12:43:28.184Z,12.70
2022-11-15T12:45:57.003Z,12.66
2022-11-15T12:49:01.098Z,12.69
2022-11-15T12:52:17.094Z,12.73
2022-11-15T12:54:55.207Z,12.72
2022-11-15T12:57:36.371Z,12.73
2022-11-15T13:00:27.512Z,12.68
2022-11-15T13:03:27.249Z,12.67
2022-11-15T13:06:32.833Z,12.69
2022-11-15T13:09:02.858Z,12.70
2022-11-15T13:12:02.834Z,12.69
2022-11-15T13:14:50.654Z,12.65
2022-11-15T13:17:35.550Z,12.65
2022-11-15T13:20:24.674Z,12.62
2022-11-15T13:23:00.309Z,12.62
2022-11-15T13:26:21.706Z,12.57
2022-11-15T13:28:53.333Z,12.57
2022-11-15T13:31:29.883Z,12.56
2022-11-15T13:34:03.030Z,12.57
2022-11-15T13:36:35.428Z,12.58
2022-11-15T13:39:06.071Z,12.58
2022-11-15T13:41:38.161Z,12.57
2022-11-15T13:44:21.800Z,12.62
2022-11-15T13:46:50.488Z,12.63
2022-11-15T13:49:19.317Z,12.58
2022-11-15T13:51:51.586Z,12.54
2022-11-15T13:54:25.941Z,12.51
2022-11-15T13:57:00.625Z,12.47
2022-11-15T13:59:32.867Z,12.57
2022-11-15T14:02:05.931Z,12.63
2022-11-15T14:04:35.229Z,12.54
2022-11-15T14:07:06.567Z,12.43
2022-11-15T14:09:39.121Z,12.28
2022-11-15T14:12:33.433Z,12.41
2022-11-15T14:15:04.844Z,12.43
2022-11-15T14:17:39.471Z,12.36
2022-11-15T14:20:31.956Z,12.26
2022-11-15T14:23:03.307Z,12.18
2022-11-15T14:25:32.946Z,12.10
2022-11-15T14:28:32.142Z,12.07
2022-11-15T14:31:02.442Z,12.03
2022-11-15T14:33:34.437Z,11.96
2022-11-15T14:36:10.511Z,11.89
2022-11-15T14:38:39.200Z,11.78
2022-11-15T14:41:07.935Z,11.76
2022-11-15T14:43:38.045Z,11.77
2022-11-15T14:46:06.842Z,11.80
2022-11-15T14:48:35.714Z,11.72
2022-11-15T14:51:04.584Z,11.64
2022-11-15T14:53:33.290Z,11.57
2022-11-15T14:56:02.291Z,11.46
2022-11-15T14:58:31.341Z,11.33
2022-11-15T15:01:02.321Z,11.32
2022-11-15T15:03:31.369Z,11.33
2022-11-15T15:06:00.042Z,11.29
2022-11-15T15:08:28.760Z,11.26
2022-11-15T15:10:57.473Z,11.23
2022-11-15T15:13:29.832Z,11.14
2022-11-15T15:16:00.000Z,11.05
2022-11-15T15:18:34.435Z,10.90
2022-11-15T15:21:07.879Z,10.82
2022-11-15T15:23:40.924Z,10.74
2022-11-15T15:26:29.293Z,10.59
2022-11-15T15:29:00.926Z,10.49
2022-11-15T15:31:32.900Z,10.41
2022-11-15T15:34:18.044Z,10.38
2022-11-15T15:36:52.214Z,10.31
2022-11-15T15:39:21.143Z,10.27
2022-11-15T15:41:57.245Z,10.20
2022-11-15T15:44:26.911Z,10.16
2022-11-15T15:47:00.058Z,10.14
2022-11-15T15:49:30.388Z,10.10
2022-11-15T15:52:05.949Z,10.05
2022-11-15T15:54:42.819Z,9.98
2022-11-15T15:57:15.030Z,9.89
2022-11-15T15:59:44.047Z,9.80
2022-11-15T16:02:17.611Z,9.73
2022-11-15T16:04:48.825Z,9.65
2022-11-15T16:07:24.599Z,9.62
2022-11-15T16:10:04.137Z,9.65
2022-11-15T16:12:35.427Z,9.66
2022-11-15T16:15:05.199Z,9.60
2022-11-15T16:17:40.420Z,9.51
2022-11-15T16:20:17.546Z,9.44
2022-11-15T16:22:46.267Z,9.37
2022-11-15T16:25:15.938Z,9.31
2022-11-15T16:27:49.524Z,9.23
2022-11-15T16:30:20.600Z,9.18
2022-11-15T16:32:50.878Z,9.14
2022-11-15T16:35:21.282Z,9.07
2022-11-15T16:37:51.316Z,9.03
2022-11-15T16:40:28.325Z,9.00
2022-11-15T16:42:57.818Z,8.98
2022-11-15T16:45:27.143Z,8.95
2022-11-15T16:47:57.864Z,8.91
2022-11-15T16:50:28.392Z,8.89
2022-11-15T16:52:58.923Z,8.90
2022-11-15T16:55:30.649Z,8.91
2022-11-15T16:57:59.352Z,8.89
2022-11-15T17:00:28.082Z,8.84
2022-11-15T17:02:58.970Z,8.78
2022-11-15T17:05:28.347Z,8.76
2022-11-15T17:07:57.381Z,8.76
2022-11-15T17:10:27.750Z,8.78
2022-11-15T17:12:57.578Z,8.79
2022-11-15T17:15:28.987Z,8.75
2022-11-15T17:17:59.052Z,8.73
2022-11-15T17:20:28.125Z,8.67
2022-11-15T17:22:58.026Z,8.59
2022-11-15T17:25:27.163Z,8.52
2022-11-15T17:27:57.209Z,8.48
2022-11-15T17:30:25.814Z,8.42
2022-11-15T17:32:55.143Z,8.36
2022-11-15T17:35:25.355Z,8.28
2022-11-15T17:37:53.924Z,8.21
2022-11-15T17:40:22.783Z,8.16
2022-11-15T17:42:53.433Z,8.11
2022-11-15T17:45:22.030Z,8.07
2022-11-15T17:47:50.568Z,8.05
2022-11-15T17:50:19.226Z,8.02
2022-11-15T17:52:49.276Z,8.00
2022-11-15T17:55:17.949Z,7.97
2022-11-15T17:57:46.713Z,7.95
2022-11-15T18:00:19.561Z,7.93
2022-11-15T18:02:48.503Z,7.92
2022-11-15T18:05:17.093Z,7.93
2022-11-15T18:07:45.733Z,7.95
2022-11-15T18:10:15.838Z,7.88
2022-11-15T18:12:44.662Z,7.87
2022-11-15T18:15:13.319Z,7.85
2022-11-15T18:17:42.112Z,7.80
2022-11-15T18:20:14.535Z,7.78
2022-11-15T18:22:47.286Z,7.77
2022-11-15T18:25:20.253Z,7.74
2022-11-15T18:27:56.185Z,7.66
2022-11-15T18:30:37.205Z,7.60
2022-11-15T18:33:06.393Z,7.56
2022-11-15T18:35:35.195Z,7.52
2022-11-15T18:38:04.228Z,7.47
2022-11-15T18:40:34.440Z,7.43
2022-11-15T18:43:07.705Z,7.37
2022-11-15T18:46:02.331Z,7.34
2022-11-15T18:48:31.609Z,7.35
2022-11-15T18:51:05.457Z,7.32
2022-11-15T18:53:37.306Z,7.31
2022-11-15T18:56:11.499Z,7.25
2022-11-15T18:58:42.435Z,7.24
2022-11-15T19:01:14.237Z,7.20
2022-11-15T19:03:47.607Z,7.17
2022-11-15T19:06:18.469Z,7.14
2022-11-15T19:08:49.399Z,7.09
2022-11-15T19:11:25.284Z,7.05
2022-11-15T19:14:03.950Z,6.99
2022-11-15T19:16:36.180Z,6.92
2022-11-15T19:19:16.895Z,6.87
2022-11-15T19:21:45.901Z,6.86
2022-11-15T19:24:15.373Z,6.83
2022-11-15T19:26:47.567Z,6.79
2022-11-15T19:29:42.721Z,6.74
2022-11-15T19:32:11.106Z,6.71
2022-11-15T19:34:41.745Z,6.71
2022-11-15T19:37:10.517Z,6.67
2022-11-15T19:39:41.181Z,6.62
2022-11-15T19:42:12.087Z,6.59
2022-11-15T19:44:40.773Z,6.55
2022-11-15T19:47:09.470Z,6.52
2022-11-15T19:49:38.195Z,6.49
2022-11-15T19:52:07.268Z,6.45
2022-11-15T19:54:35.946Z,6.42
2022-11-15T19:57:05.862Z,6.37
2022-11-15T19:59:43.739Z,6.34
2022-11-15T20:02:13.635Z,6.27
2022-11-15T20:04:42.451Z,6.22
2022-11-15T20:07:11.110Z,6.19
2022-11-15T20:09:40.137Z,6.17
2022-11-15T20:12:08.795Z,6.14
2022-11-15T20:14:39.475Z,6.09
2022-11-15T20:17:10.557Z,6.05
2022-11-15T20:19:39.285Z,6.04
2022-11-15T20:22:08.221Z,6.01
2022-11-15T20:24:55.474Z,5.97
2022-11-15T20:27:24.448Z,5.93
2022-11-15T20:29:54.614Z,5.91
2022-11-15T20:32:25.680Z,5.90
2022-11-15T20:34:54.623Z,5.88
2022-11-15T20:37:28.622Z,5.85
2022-11-15T20:39:57.291Z,5.81
2022-11-15T20:42:27.378Z,5.78
2022-11-15T20:44:57.899Z,5.77
2022-11-15T20:47:30.197Z,5.81
2022-11-15T20:50:14.872Z,5.79
2022-11-15T20:52:48.808Z,5.72
2022-11-15T20:55:17.614Z,5.63
2022-11-15T20:57:46.819Z,5.57
2022-11-15T21:00:17.996Z,5.54
2022-11-15T21:02:46.661Z,5.52
2022-11-15T21:05:21.756Z,5.50
2022-11-15T21:07:50.521Z,5.49
2022-11-15T21:10:37.371Z,5.48
2022-11-15T21:13:05.946Z,5.46
2022-11-15T21:15:36.588Z,5.45
2022-11-15T21:18:05.432Z,5.43
2022-11-15T21:20:49.691Z,5.42
2022-11-15T21:23:29.753Z,5.40
2022-11-15T21:25:58.742Z,5.36
2022-11-15T21:28:27.548Z,5.32
2022-11-15T21:30:59.607Z,5.35
2022-11-15T21:36:14.044Z,5.27
2022-11-15T21:38:45.499Z,5.23
2022-11-15T21:41:14.269Z,5.19
2022-11-15T21:43:55.498Z,5.20
2022-11-15T21:46:29.306Z,5.22
2022-11-15T21:49:03.001Z,5.23
2022-11-15T21:51:46.805Z,5.22
2022-11-15T21:54:21.694Z,5.17
2022-11-15T21:56:50.579Z,5.15
2022-11-15T21:59:19.708Z,5.09
2022-11-15T22:02:07.275Z,5.05
2022-11-15T22:04:37.151Z,5.04
2022-11-15T22:07:05.804Z,5.02
2022-11-15T22:09:34.626Z,5.00
2022-11-15T22:12:05.719Z,4.98
2022-11-15T22:14:35.599Z,4.95
2022-11-15T22:17:07.330Z,4.90
2022-11-15T22:19:47.389Z,4.87
2022-11-15T22:22:20.849Z,4.84
2022-11-15T22:24:49.543Z,4.81
2022-11-15T22:27:18.306Z,4.79
2022-11-15T22:29:47.462Z,4.76
2022-11-15T22:32:18.754Z,4.72
2022-11-15T22:34:50.315Z,4.68
2022-11-15T22:37:21.167Z,4.64
2022-11-15T22:39:50.206Z,4.65
2022-11-15T22:42:23.944Z,4.60
2022-11-15T22:44:57.733Z,4.57
2022-11-15T22:47:30.883Z,4.57
2022-11-15T22:50:01.202Z,4.51
2022-11-15T22:52:29.892Z,4.46
2022-11-15T22:55:00.221Z,4.41
2022-11-15T22:57:28.900Z,4.41
2022-11-15T22:59:57.809Z,4.45
2022-11-15T23:02:29.375Z,4.45
2022-11-15T23:05:08.321Z,4.46
2022-11-15T23:07:37.265Z,4.49
2022-11-15T23:10:20.215Z,4.50
2022-11-15T23:13:06.435Z,4.46
2022-11-15T23:15:49.002Z,4.38
2022-11-15T23:18:21.419Z,4.44
2022-11-15T23:20:50.612Z,4.45
2022-11-15T23:23:18.241Z,4.46
2022-11-15T23:25:46.980Z,4.49
2022-11-15T23:28:15.554Z,4.52
2022-11-15T23:31:01.599Z,4.52
2022-11-15T23:33:48.731Z,4.52
2022-11-15T23:36:17.374Z,4.51
2022-11-15T23:38:45.952Z,4.49
2022-11-15T23:41:17.687Z,4.50
2022-11-15T23:43:46.357Z,4.47
2022-11-15T23:46:15.038Z,4.42
2022-11-15T23:48:45.480Z,4.40
2022-11-15T23:51:14.430Z,4.34
2022-11-15T23:53:43.839Z,4.35
2022-11-15T23:56:15.256Z,3.79
2022-11-15T23:58:44.707Z,4.32
